sensor_id;sensor_type;location;lat;lon;timestamp;temperature;humidity
75683;HTU21D;64295;44.772;39.872;2023-11-18T00:00:20;8.63;62.83
75683;HTU21D;64295;44.772;39.872;2023-11-18T00:02:46;8.62;62.92
75683;HTU21D;64295;44.772;39.872;2023-11-18T00:05:12;8.63;62.89
75683;HTU21D;64295;44.772;39.872;2023-11-18T00:07:39;8.65;62.88
75683;HTU21D;64295;44.772;39.872;2023-11-18T00:10:05;8.63;62.90
75683;HTU21D;64295;44.772;39.872;2023-11-18T00:12:32;8.62;62.95
75683;HTU21D;64295;44.772;39.872;2023-11-18T00:15:02;8.61;62.96
75683;HTU21D;64295;44.772;39.872;2023-11-18T00:17:30;8.61;62.94
75683;HTU21D;64295;44.772;39.872;2023-11-18T00:19:56;8.60;62.95
75683;HTU21D;64295;44.772;39.872;2023-11-18T00:22:22;8.60;62.99
75683;HTU21D;64295;44.772;39.872;2023-11-18T00:24:48;8.60;62.98
75683;HTU21D;64295;44.772;39.872;2023-11-18T00:27:14;8.56;62.98
75683;HTU21D;64295;44.772;39.872;2023-11-18T00:29:41;8.56;63.03
75683;HTU21D;64295;44.772;39.872;2023-11-18T00:32:07;8.57;63.00
75683;HTU21D;64295;44.772;39.872;2023-11-18T00:34:33;8.57;63.02
75683;HTU21D;64295;44.772;39.872;2023-11-18T00:36:59;8.58;62.99
75683;HTU21D;64295;44.772;39.872;2023-11-18T00:39:27;8.60;62.98
75683;HTU21D;64295;44.772;39.872;2023-11-18T00:41:53;8.62;62.95
75683;HTU21D;64295;44.772;39.872;2023-11-18T00:44:21;8.64;62.92
75683;HTU21D;64295;44.772;39.872;2023-11-18T00:46:47;8.64;62.92
75683;HTU21D;64295;44.772;39.872;2023-11-18T00:49:13;8.63;62.98
75683;HTU21D;64295;44.772;39.872;2023-11-18T00:51:39;8.62;63.00
75683;HTU21D;64295;44.772;39.872;2023-11-18T00:54:07;8.61;63.03
75683;HTU21D;64295;44.772;39.872;2023-11-18T00:56:33;8.61;63.03
75683;HTU21D;64295;44.772;39.872;2023-11-18T00:59:00;8.63;63.02
75683;HTU21D;64295;44.772;39.872;2023-11-18T01:01:28;8.64;63.00
75683;HTU21D;64295;44.772;39.872;2023-11-18T01:03:55;8.64;62.95
75683;HTU21D;64295;44.772;39.872;2023-11-18T01:06:26;8.65;62.95
75683;HTU21D;64295;44.772;39.872;2023-11-18T01:08:52;8.65;62.95
75683;HTU21D;64295;44.772;39.872;2023-11-18T01:11:19;8.67;62.95
75683;HTU21D;64295;44.772;39.872;2023-11-18T01:13:46;8.66;62.98
75683;HTU21D;64295;44.772;39.872;2023-11-18T01:16:12;8.66;63.01
75683;HTU21D;64295;44.772;39.872;2023-11-18T01:18:41;8.64;63.03
75683;HTU21D;64295;44.772;39.872;2023-11-18T01:21:07;8.66;63.03
75683;HTU21D;64295;44.772;39.872;2023-11-18T01:23:37;8.67;63.02
75683;HTU21D;64295;44.772;39.872;2023-11-18T01:26:05;8.71;62.96
75683;HTU21D;64295;44.772;39.872;2023-11-18T01:28:32;8.70;62.98
75683;HTU21D;64295;44.772;39.872;2023-11-18T01:31:03;8.70;63.00
75683;HTU21D;64295;44.772;39.872;2023-11-18T01:33:30;8.68;63.03
75683;HTU21D;64295;44.772;39.872;2023-11-18T01:35:58;8.67;63.08
75683;HTU21D;64295;44.772;39.872;2023-11-18T01:38:24;8.64;63.14
75683;HTU21D;64295;44.772;39.872;2023-11-18T01:40:52;8.63;63.18
75683;HTU21D;64295;44.772;39.872;2023-11-18T01:43:19;8.62;63.18
75683;HTU21D;64295;44.772;39.872;2023-11-18T01:45:46;8.56;63.25
75683;HTU21D;64295;44.772;39.872;2023-11-18T01:48:12;8.50;63.43
75683;HTU21D;64295;44.772;39.872;2023-11-18T01:50:41;8.51;63.43
75683;HTU21D;64295;44.772;39.872;2023-11-18T01:53:08;8.50;63.40
75683;HTU21D;64295;44.772;39.872;2023-11-18T01:55:35;8.52;63.35
75683;HTU21D;64295;44.772;39.872;2023-11-18T01:58:02;8.53;63.31
75683;HTU21D;64295;44.772;39.872;2023-11-18T02:00:41;8.47;63.43
75683;HTU21D;64295;44.772;39.872;2023-11-18T02:03:12;8.48;63.41
75683;HTU21D;64295;44.772;39.872;2023-11-18T02:05:38;8.49;63.37
75683;HTU21D;64295;44.772;39.872;2023-11-18T02:08:04;8.47;63.40
75683;HTU21D;64295;44.772;39.872;2023-11-18T02:10:37;8.48;63.38
75683;HTU21D;64295;44.772;39.872;2023-11-18T02:13:10;8.46;63.39
75683;HTU21D;64295;44.772;39.872;2023-11-18T02:15:39;8.45;63.37
75683;HTU21D;64295;44.772;39.872;2023-11-18T02:18:06;8.41;63.44
75683;HTU21D;64295;44.772;39.872;2023-11-18T02:20:36;8.41;63.44
75683;HTU21D;64295;44.772;39.872;2023-11-18T02:23:04;8.39;63.44
75683;HTU21D;64295;44.772;39.872;2023-11-18T02:25:33;8.35;63.47
75683;HTU21D;64295;44.772;39.872;2023-11-18T02:28:00;8.32;63.59
75683;HTU21D;64295;44.772;39.872;2023-11-18T02:30:26;8.32;63.56
75683;HTU21D;64295;44.772;39.872;2023-11-18T02:36:13;8.29;63.63
75683;HTU21D;64295;44.772;39.872;2023-11-18T02:38:20;8.27;63.65
75683;HTU21D;64295;44.772;39.872;2023-11-18T02:40:52;8.29;63.64
75683;HTU21D;64295;44.772;39.872;2023-11-18T02:43:19;8.28;63.63
75683;HTU21D;64295;44.772;39.872;2023-11-18T02:45:46;8.27;63.63
75683;HTU21D;64295;44.772;39.872;2023-11-18T02:48:14;8.23;63.70
75683;HTU21D;64295;44.772;39.872;2023-11-18T02:50:40;8.20;63.73
75683;HTU21D;64295;44.772;39.872;2023-11-18T02:53:08;8.19;63.75
75683;HTU21D;64295;44.772;39.872;2023-11-18T02:55:35;8.16;63.79
75683;HTU21D;64295;44.772;39.872;2023-11-18T02:58:01;8.16;63.78
75683;HTU21D;64295;44.772;39.872;2023-11-18T03:00:28;8.16;63.78
75683;HTU21D;64295;44.772;39.872;2023-11-18T03:02:55;8.13;63.79
75683;HTU21D;64295;44.772;39.872;2023-11-18T03:05:21;8.09;63.83
75683;HTU21D;64295;44.772;39.872;2023-11-18T03:07:47;8.09;63.82
75683;HTU21D;64295;44.772;39.872;2023-11-18T03:10:19;8.08;63.85
75683;HTU21D;64295;44.772;39.872;2023-11-18T03:12:48;8.12;63.79
75683;HTU21D;64295;44.772;39.872;2023-11-18T03:15:15;8.14;63.72
75683;HTU21D;64295;44.772;39.872;2023-11-18T03:17:46;8.15;63.68
75683;HTU21D;64295;44.772;39.872;2023-11-18T03:20:18;8.15;63.68
75683;HTU21D;64295;44.772;39.872;2023-11-18T03:22:48;8.14;63.69
75683;HTU21D;64295;44.772;39.872;2023-11-18T03:25:17;8.12;63.75
75683;HTU21D;64295;44.772;39.872;2023-11-18T03:27:43;8.14;63.72
75683;HTU21D;64295;44.772;39.872;2023-11-18T03:30:12;8.12;63.73
75683;HTU21D;64295;44.772;39.872;2023-11-18T03:32:39;8.12;63.76
75683;HTU21D;64295;44.772;39.872;2023-11-18T03:35:06;8.08;63.79
75683;HTU21D;64295;44.772;39.872;2023-11-18T03:37:35;8.05;63.90
75683;HTU21D;64295;44.772;39.872;2023-11-18T03:40:01;8.04;63.90
75683;HTU21D;64295;44.772;39.872;2023-11-18T03:42:27;8.03;63.94
75683;HTU21D;64295;44.772;39.872;2023-11-18T03:44:54;8.01;63.95
75683;HTU21D;64295;44.772;39.872;2023-11-18T03:47:20;8.01;63.95
75683;HTU21D;64295;44.772;39.872;2023-11-18T03:49:50;8.01;63.98
75683;HTU21D;64295;44.772;39.872;2023-11-18T03:52:16;8.00;64.01
75683;HTU21D;64295;44.772;39.872;2023-11-18T03:54:42;8.01;63.98
75683;HTU21D;64295;44.772;39.872;2023-11-18T03:57:08;8.03;63.96
75683;HTU21D;64295;44.772;39.872;2023-11-18T03:59:34;8.06;63.92
75683;HTU21D;64295;44.772;39.872;2023-11-18T04:02:00;8.07;63.89
75683;HTU21D;64295;44.772;39.872;2023-11-18T04:04:26;8.09;63.88
75683;HTU21D;64295;44.772;39.872;2023-11-18T04:06:53;8.09;63.88
75683;HTU21D;64295;44.772;39.872;2023-11-18T04:09:19;8.13;63.84
75683;HTU21D;64295;44.772;39.872;2023-11-18T04:11:45;8.17;63.76
75683;HTU21D;64295;44.772;39.872;2023-11-18T04:14:11;8.16;63.73
75683;HTU21D;64295;44.772;39.872;2023-11-18T04:16:38;8.15;63.77
75683;HTU21D;64295;44.772;39.872;2023-11-18T04:19:04;8.16;63.82
75683;HTU21D;64295;44.772;39.872;2023-11-18T04:21:31;8.19;63.79
75683;HTU21D;64295;44.772;39.872;2023-11-18T04:23:57;8.20;63.76
75683;HTU21D;64295;44.772;39.872;2023-11-18T04:26:22;8.22;63.76
75683;HTU21D;64295;44.772;39.872;2023-11-18T04:28:50;8.24;63.74
75683;HTU21D;64295;44.772;39.872;2023-11-18T04:31:16;8.23;63.73
75683;HTU21D;64295;44.772;39.872;2023-11-18T04:33:41;8.19;63.82
75683;HTU21D;64295;44.772;39.872;2023-11-18T04:36:09;8.17;63.85
75683;HTU21D;64295;44.772;39.872;2023-11-18T04:38:36;8.20;63.85
75683;HTU21D;64295;44.772;39.872;2023-11-18T04:41:02;8.20;63.85
75683;HTU21D;64295;44.772;39.872;2023-11-18T04:43:32;8.22;63.83
75683;HTU21D;64295;44.772;39.872;2023-11-18T04:45:59;8.23;63.79
75683;HTU21D;64295;44.772;39.872;2023-11-18T04:48:25;8.26;63.78
75683;HTU21D;64295;44.772;39.872;2023-11-18T04:50:51;8.28;63.72
75683;HTU21D;64295;44.772;39.872;2023-11-18T04:53:17;8.31;63.72
75683;HTU21D;64295;44.772;39.872;2023-11-18T04:55:43;8.32;63.72
75683;HTU21D;64295;44.772;39.872;2023-11-18T04:58:08;8.32;63.73
75683;HTU21D;64295;44.772;39.872;2023-11-18T05:00:36;8.31;63.73
75683;HTU21D;64295;44.772;39.872;2023-11-18T05:03:04;8.34;63.73
75683;HTU21D;64295;44.772;39.872;2023-11-18T05:05:31;8.32;63.72
75683;HTU21D;64295;44.772;39.872;2023-11-18T05:07:57;8.26;63.82
75683;HTU21D;64295;44.772;39.872;2023-11-18T05:10:23;8.23;63.91
75683;HTU21D;64295;44.772;39.872;2023-11-18T05:12:49;8.23;63.95
75683;HTU21D;64295;44.772;39.872;2023-11-18T05:15:21;8.36;63.84
75683;HTU21D;64295;44.772;39.872;2023-11-18T05:17:51;8.37;63.77
75683;HTU21D;64295;44.772;39.872;2023-11-18T05:20:17;8.34;63.85
75683;HTU21D;64295;44.772;39.872;2023-11-18T05:22:43;8.34;63.89
75683;HTU21D;64295;44.772;39.872;2023-11-18T05:25:09;8.32;63.92
75683;HTU21D;64295;44.772;39.872;2023-11-18T05:27:36;8.33;63.92
75683;HTU21D;64295;44.772;39.872;2023-11-18T05:30:02;8.34;63.90
75683;HTU21D;64295;44.772;39.872;2023-11-18T05:32:29;8.37;63.84
75683;HTU21D;64295;44.772;39.872;2023-11-18T05:34:55;8.38;63.84
75683;HTU21D;64295;44.772;39.872;2023-11-18T05:37:23;8.39;63.83
75683;HTU21D;64295;44.772;39.872;2023-11-18T05:39:50;8.43;63.81
75683;HTU21D;64295;44.772;39.872;2023-11-18T05:42:27;8.47;63.73
75683;HTU21D;64295;44.772;39.872;2023-11-18T05:44:53;8.49;63.67
75683;HTU21D;64295;44.772;39.872;2023-11-18T05:47:27;8.50;63.69
75683;HTU21D;64295;44.772;39.872;2023-11-18T05:49:54;8.51;63.67
75683;HTU21D;64295;44.772;39.872;2023-11-18T05:52:20;8.53;63.64
75683;HTU21D;64295;44.772;39.872;2023-11-18T05:54:47;8.53;63.66
75683;HTU21D;64295;44.772;39.872;2023-11-18T05:57:16;8.58;63.62
75683;HTU21D;64295;44.772;39.872;2023-11-18T05:59:42;8.63;63.53
75683;HTU21D;64295;44.772;39.872;2023-11-18T06:02:09;8.64;63.53
75683;HTU21D;64295;44.772;39.872;2023-11-18T06:04:38;8.72;63.46
75683;HTU21D;64295;44.772;39.872;2023-11-18T06:07:04;8.79;63.34
75683;HTU21D;64295;44.772;39.872;2023-11-18T06:09:30;8.87;63.26
75683;HTU21D;64295;44.772;39.872;2023-11-18T06:11:56;9.02;63.05
75683;HTU21D;64295;44.772;39.872;2023-11-18T06:14:22;9.17;62.85
75683;HTU21D;64295;44.772;39.872;2023-11-18T06:16:48;9.33;62.60
75683;HTU21D;64295;44.772;39.872;2023-11-18T06:19:16;9.52;62.31
75683;HTU21D;64295;44.772;39.872;2023-11-18T06:21:42;9.69;62.13
75683;HTU21D;64295;44.772;39.872;2023-11-18T06:24:08;9.89;61.88
75683;HTU21D;64295;44.772;39.872;2023-11-18T06:26:37;10.07;61.64
75683;HTU21D;64295;44.772;39.872;2023-11-18T06:29:03;10.24;61.46
75683;HTU21D;64295;44.772;39.872;2023-11-18T06:31:32;10.45;61.23
75683;HTU21D;64295;44.772;39.872;2023-11-18T06:33:58;10.62;61.05
75683;HTU21D;64295;44.772;39.872;2023-11-18T06:36:24;10.77;60.96
75683;HTU21D;64295;44.772;39.872;2023-11-18T06:38:52;10.88;60.87
75683;HTU21D;64295;44.772;39.872;2023-11-18T06:41:23;11.03;60.85
75683;HTU21D;64295;44.772;39.872;2023-11-18T06:44:00;11.13;60.80
75683;HTU21D;64295;44.772;39.872;2023-11-18T06:46:34;11.14;60.89
75683;HTU21D;64295;44.772;39.872;2023-11-18T06:49:03;11.25;60.94
75683;HTU21D;64295;44.772;39.872;2023-11-18T06:51:31;11.42;60.79
75683;HTU21D;64295;44.772;39.872;2023-11-18T06:54:02;11.56;60.69
75683;HTU21D;64295;44.772;39.872;2023-11-18T06:56:37;11.69;60.60
75683;HTU21D;64295;44.772;39.872;2023-11-18T06:59:05;11.68;60.70
75683;HTU21D;64295;44.772;39.872;2023-11-18T07:01:36;11.69;60.97
75683;HTU21D;64295;44.772;39.872;2023-11-18T07:04:02;11.89;60.75
75683;HTU21D;64295;44.772;39.872;2023-11-18T07:06:28;11.92;60.79
75683;HTU21D;64295;44.772;39.872;2023-11-18T07:08:54;12.01;60.74
75683;HTU21D;64295;44.772;39.872;2023-11-18T07:11:26;12.07;60.72
75683;HTU21D;64295;44.772;39.872;2023-11-18T07:13:52;12.15;60.61
75683;HTU21D;64295;44.772;39.872;2023-11-18T07:16:25;12.12;60.70
75683;HTU21D;64295;44.772;39.872;2023-11-18T07:18:51;12.06;60.96
75683;HTU21D;64295;44.772;39.872;2023-11-18T07:21:18;12.14;60.93
75683;HTU21D;64295;44.772;39.872;2023-11-18T07:23:44;12.25;60.83
75683;HTU21D;64295;44.772;39.872;2023-11-18T07:26:11;12.42;60.64
75683;HTU21D;64295;44.772;39.872;2023-11-18T07:28:40;12.63;60.21
75683;HTU21D;64295;44.772;39.872;2023-11-18T07:31:06;12.76;60.24
75683;HTU21D;64295;44.772;39.872;2023-11-18T07:33:33;12.92;59.92
75683;HTU21D;64295;44.772;39.872;2023-11-18T07:36:00;12.93;60.01
75683;HTU21D;64295;44.772;39.872;2023-11-18T07:38:32;13.02;59.93
75683;HTU21D;64295;44.772;39.872;2023-11-18T07:44:32;13.20;59.86
75683;HTU21D;64295;44.772;39.872;2023-11-18T07:47:06;13.39;59.61
75683;HTU21D;64295;44.772;39.872;2023-11-18T07:49:34;13.59;59.40
75683;HTU21D;64295;44.772;39.872;2023-11-18T07:52:04;13.78;59.17
75683;HTU21D;64295;44.772;39.872;2023-11-18T07:54:41;13.94;59.00
75683;HTU21D;64295;44.772;39.872;2023-11-18T07:57:19;14.08;58.93
75683;HTU21D;64295;44.772;39.872;2023-11-18T07:59:53;14.17;58.82
75683;HTU21D;64295;44.772;39.872;2023-11-18T08:02:20;14.20;58.90
75683;HTU21D;64295;44.772;39.872;2023-11-18T08:04:46;14.40;58.70
75683;HTU21D;64295;44.772;39.872;2023-11-18T08:07:12;14.54;58.47
75683;HTU21D;64295;44.772;39.872;2023-11-18T08:09:39;14.63;58.48
75683;HTU21D;64295;44.772;39.872;2023-11-18T08:12:06;14.73;58.43
75683;HTU21D;64295;44.772;39.872;2023-11-18T08:14:35;14.79;58.43
75683;HTU21D;64295;44.772;39.872;2023-11-18T08:17:01;14.88;58.38
75683;HTU21D;64295;44.772;39.872;2023-11-18T08:19:26;15.02;58.24
75683;HTU21D;64295;44.772;39.872;2023-11-18T08:21:52;15.23;57.99
75683;HTU21D;64295;44.772;39.872;2023-11-18T08:24:18;15.32;57.84
75683;HTU21D;64295;44.772;39.872;2023-11-18T08:26:46;15.36;57.83
75683;HTU21D;64295;44.772;39.872;2023-11-18T08:29:12;15.43;57.83
75683;HTU21D;64295;44.772;39.872;2023-11-18T08:31:38;15.58;57.73
75683;HTU21D;64295;44.772;39.872;2023-11-18T08:34:05;15.73;57.58
75683;HTU21D;64295;44.772;39.872;2023-11-18T08:36:31;15.84;57.44
75683;HTU21D;64295;44.772;39.872;2023-11-18T08:38:59;15.86;57.36
75683;HTU21D;64295;44.772;39.872;2023-11-18T08:41:25;15.82;57.53
75683;HTU21D;64295;44.772;39.872;2023-11-18T08:43:51;15.88;57.44
75683;HTU21D;64295;44.772;39.872;2023-11-18T08:46:19;15.93;57.45
75683;HTU21D;64295;44.772;39.872;2023-11-18T08:48:44;16.02;57.27
75683;HTU21D;64295;44.772;39.872;2023-11-18T08:51:10;16.08;57.15
75683;HTU21D;64295;44.772;39.872;2023-11-18T08:53:38;16.20;57.09
75683;HTU21D;64295;44.772;39.872;2023-11-18T08:56:10;16.33;56.95
75683;HTU21D;64295;44.772;39.872;2023-11-18T08:58:45;16.43;56.83
75683;HTU21D;64295;44.772;39.872;2023-11-18T09:01:11;16.50;56.81
75683;HTU21D;64295;44.772;39.872;2023-11-18T09:03:41;16.71;56.52
75683;HTU21D;64295;44.772;39.872;2023-11-18T09:06:18;16.69;56.60
75683;HTU21D;64295;44.772;39.872;2023-11-18T09:08:48;16.66;56.64
75683;HTU21D;64295;44.772;39.872;2023-11-18T09:11:22;16.58;56.60
75683;HTU21D;64295;44.772;39.872;2023-11-18T09:13:49;16.52;56.76
75683;HTU21D;64295;44.772;39.872;2023-11-18T09:16:23;16.62;56.67
75683;HTU21D;64295;44.772;39.872;2023-11-18T09:18:55;16.65;56.61
75683;HTU21D;64295;44.772;39.872;2023-11-18T09:21:24;16.49;56.83
75683;HTU21D;64295;44.772;39.872;2023-11-18T09:23:57;16.31;56.98
75683;HTU21D;64295;44.772;39.872;2023-11-18T09:26:25;16.19;57.13
75683;HTU21D;64295;44.772;39.872;2023-11-18T09:29:01;16.11;57.22
75683;HTU21D;64295;44.772;39.872;2023-11-18T09:31:32;16.12;57.11
75683;HTU21D;64295;44.772;39.872;2023-11-18T09:33:58;16.20;56.93
75683;HTU21D;64295;44.772;39.872;2023-11-18T09:36:25;16.33;56.68
75683;HTU21D;64295;44.772;39.872;2023-11-18T09:38:54;16.37;56.26
75683;HTU21D;64295;44.772;39.872;2023-11-18T09:41:22;16.41;56.19
75683;HTU21D;64295;44.772;39.872;2023-11-18T09:43:49;16.49;56.04
75683;HTU21D;64295;44.772;39.872;2023-11-18T09:46:24;16.55;55.92
75683;HTU21D;64295;44.772;39.872;2023-11-18T09:49:40;16.58;55.91
75683;HTU21D;64295;44.772;39.872;2023-11-18T09:52:06;16.66;55.84
75683;HTU21D;64295;44.772;39.872;2023-11-18T09:54:39;16.62;55.87
75683;HTU21D;64295;44.772;39.872;2023-11-18T09:59:42;16.40;56.23
75683;HTU21D;64295;44.772;39.872;2023-11-18T10:02:12;16.24;56.44
75683;HTU21D;64295;44.772;39.872;2023-11-18T10:04:38;16.10;56.66
75683;HTU21D;64295;44.772;39.872;2023-11-18T10:07:06;16.15;56.52
75683;HTU21D;64295;44.772;39.872;2023-11-18T10:09:36;16.15;56.44
75683;HTU21D;64295;44.772;39.872;2023-11-18T10:12:03;16.22;56.21
75683;HTU21D;64295;44.772;39.872;2023-11-18T10:14:42;16.35;55.99
75683;HTU21D;64295;44.772;39.872;2023-11-18T10:17:11;16.46;55.74
75683;HTU21D;64295;44.772;39.872;2023-11-18T10:19:56;16.56;55.43
75683;HTU21D;64295;44.772;39.872;2023-11-18T10:22:28;16.64;55.24
75683;HTU21D;64295;44.772;39.872;2023-11-18T10:24:56;16.70;55.05
75683;HTU21D;64295;44.772;39.872;2023-11-18T10:27:26;16.77;54.94
75683;HTU21D;64295;44.772;39.872;2023-11-18T10:30:06;16.93;54.80
75683;HTU21D;64295;44.772;39.872;2023-11-18T10:32:59;17.10;54.68
75683;HTU21D;64295;44.772;39.872;2023-11-18T10:35:34;17.19;54.48
75683;HTU21D;64295;44.772;39.872;2023-11-18T10:38:03;17.10;54.59
75683;HTU21D;64295;44.772;39.872;2023-11-18T10:40:34;16.99;54.82
75683;HTU21D;64295;44.772;39.872;2023-11-18T10:43:06;16.95;54.84
75683;HTU21D;64295;44.772;39.872;2023-11-18T10:45:36;16.88;55.01
75683;HTU21D;64295;44.772;39.872;2023-11-18T10:48:08;16.84;55.01
75683;HTU21D;64295;44.772;39.872;2023-11-18T10:50:34;16.75;55.16
75683;HTU21D;64295;44.772;39.872;2023-11-18T10:53:03;16.70;55.13
75683;HTU21D;64295;44.772;39.872;2023-11-18T10:55:38;16.45;55.42
75683;HTU21D;64295;44.772;39.872;2023-11-18T10:58:09;16.20;55.65
75683;HTU21D;64295;44.772;39.872;2023-11-18T11:00:51;16.05;55.78
75683;HTU21D;64295;44.772;39.872;2023-11-18T11:03:21;15.93;55.99
75683;HTU21D;64295;44.772;39.872;2023-11-18T11:05:58;15.80;56.07
75683;HTU21D;64295;44.772;39.872;2023-11-18T11:08:26;15.67;56.15
75683;HTU21D;64295;44.772;39.872;2023-11-18T11:10:53;15.65;56.19
75683;HTU21D;64295;44.772;39.872;2023-11-18T11:13:24;15.61;56.09
75683;HTU21D;64295;44.772;39.872;2023-11-18T11:15:51;15.62;56.06
75683;HTU21D;64295;44.772;39.872;2023-11-18T11:18:27;15.62;55.78
75683;HTU21D;64295;44.772;39.872;2023-11-18T11:21:10;15.57;55.74
75683;HTU21D;64295;44.772;39.872;2023-11-18T11:24:08;15.49;55.79
75683;HTU21D;64295;44.772;39.872;2023-11-18T11:26:55;15.55;55.76
75683;HTU21D;64295;44.772;39.872;2023-11-18T11:34:40;15.80;55.36
75683;HTU21D;64295;44.772;39.872;2023-11-18T11:37:13;15.74;55.42
75683;HTU21D;64295;44.772;39.872;2023-11-18T11:39:40;15.65;55.58
75683;HTU21D;64295;44.772;39.872;2023-11-18T11:42:13;15.58;55.69
75683;HTU21D;64295;44.772;39.872;2023-11-18T11:44:44;15.48;55.84
75683;HTU21D;64295;44.772;39.872;2023-11-18T11:47:10;15.44;55.79
75683;HTU21D;64295;44.772;39.872;2023-11-18T11:49:47;15.43;55.87
75683;HTU21D;64295;44.772;39.872;2023-11-18T11:52:26;15.48;55.73
75683;HTU21D;64295;44.772;39.872;2023-11-18T11:55:38;15.42;55.72
75683;HTU21D;64295;44.772;39.872;2023-11-18T11:58:29;15.33;55.82
75683;HTU21D;64295;44.772;39.872;2023-11-18T12:01:18;15.26;55.97
75683;HTU21D;64295;44.772;39.872;2023-11-18T12:03:49;15.24;56.07
75683;HTU21D;64295;44.772;39.872;2023-11-18T12:06:21;15.24;55.97
75683;HTU21D;64295;44.772;39.872;2023-11-18T12:08:51;15.41;55.82
75683;HTU21D;64295;44.772;39.872;2023-11-18T12:11:19;15.36;55.87
75683;HTU21D;64295;44.772;39.872;2023-11-18T12:14:05;15.18;56.15
75683;HTU21D;64295;44.772;39.872;2023-11-18T12:17:00;14.94;56.54
75683;HTU21D;64295;44.772;39.872;2023-11-18T12:19:33;14.80;56.81
75683;HTU21D;64295;44.772;39.872;2023-11-18T12:22:11;14.72;56.89
75683;HTU21D;64295;44.772;39.872;2023-11-18T12:33:03;14.27;57.42
75683;HTU21D;64295;44.772;39.872;2023-11-18T12:38:31;14.11;57.66
75683;HTU21D;64295;44.772;39.872;2023-11-18T12:47:02;13.92;57.87
75683;HTU21D;64295;44.772;39.872;2023-11-18T12:49:38;13.85;58.00
75683;HTU21D;64295;44.772;39.872;2023-11-18T12:52:08;13.82;58.03
75683;HTU21D;64295;44.772;39.872;2023-11-18T12:54:35;13.75;58.16
75683;HTU21D;64295;44.772;39.872;2023-11-18T12:57:09;13.64;58.31
75683;HTU21D;64295;44.772;39.872;2023-11-18T12:59:37;13.59;58.43
75683;HTU21D;64295;44.772;39.872;2023-11-18T13:02:09;13.58;58.41
75683;HTU21D;64295;44.772;39.872;2023-11-18T13:04:44;13.52;58.48
75683;HTU21D;64295;44.772;39.872;2023-11-18T13:07:30;13.45;58.62
75683;HTU21D;64295;44.772;39.872;2023-11-18T13:09:56;13.38;58.72
75683;HTU21D;64295;44.772;39.872;2023-11-18T13:12:22;13.36;58.74
75683;HTU21D;64295;44.772;39.872;2023-11-18T13:14:49;13.31;58.80
75683;HTU21D;64295;44.772;39.872;2023-11-18T13:17:17;13.27;58.89
75683;HTU21D;64295;44.772;39.872;2023-11-18T13:19:43;13.31;58.87
75683;HTU21D;64295;44.772;39.872;2023-11-18T13:22:12;13.32;58.81
75683;HTU21D;64295;44.772;39.872;2023-11-18T13:24:40;13.34;58.78
75683;HTU21D;64295;44.772;39.872;2023-11-18T13:27:08;13.23;58.90
75683;HTU21D;64295;44.772;39.872;2023-11-18T13:29:38;13.19;58.99
75683;HTU21D;64295;44.772;39.872;2023-11-18T13:32:10;13.19;59.05
75683;HTU21D;64295;44.772;39.872;2023-11-18T13:34:37;13.14;59.06
75683;HTU21D;64295;44.772;39.872;2023-11-18T13:37:05;13.03;59.25
75683;HTU21D;64295;44.772;39.872;2023-11-18T13:39:33;12.95;59.40
75683;HTU21D;64295;44.772;39.872;2023-11-18T13:42:18;12.92;59.46
75683;HTU21D;64295;44.772;39.872;2023-11-18T13:44:48;12.90;59.43
75683;HTU21D;64295;44.772;39.872;2023-11-18T13:47:20;12.90;59.44
75683;HTU21D;64295;44.772;39.872;2023-11-18T13:49:49;12.89;59.44
75683;HTU21D;64295;44.772;39.872;2023-11-18T13:52:16;12.87;59.55
75683;HTU21D;64295;44.772;39.872;2023-11-18T13:54:44;12.90;59.46
75683;HTU21D;64295;44.772;39.872;2023-11-18T13:57:12;12.79;59.64
75683;HTU21D;64295;44.772;39.872;2023-11-18T13:59:38;12.71;59.80
75683;HTU21D;64295;44.772;39.872;2023-11-18T14:02:04;12.67;59.85
75683;HTU21D;64295;44.772;39.872;2023-11-18T14:04:33;12.60;59.98
75683;HTU21D;64295;44.772;39.872;2023-11-18T14:07:02;12.59;60.01
75683;HTU21D;64295;44.772;39.872;2023-11-18T14:09:35;12.56;60.09
75683;HTU21D;64295;44.772;39.872;2023-11-18T14:12:06;12.52;60.15
75683;HTU21D;64295;44.772;39.872;2023-11-18T14:14:32;12.49;60.14
75683;HTU21D;64295;44.772;39.872;2023-11-18T14:16:58;12.38;60.32
75683;HTU21D;64295;44.772;39.872;2023-11-18T14:19:28;12.30;60.49
75683;HTU21D;64295;44.772;39.872;2023-11-18T14:21:57;12.25;60.54
75683;HTU21D;64295;44.772;39.872;2023-11-18T14:24:23;12.17;60.64
75683;HTU21D;64295;44.772;39.872;2023-11-18T14:26:56;12.14;60.73
75683;HTU21D;64295;44.772;39.872;2023-11-18T14:29:22;12.10;60.71
75683;HTU21D;64295;44.772;39.872;2023-11-18T14:31:48;11.97;60.90
75683;HTU21D;64295;44.772;39.872;2023-11-18T14:34:15;11.89;61.08
75683;HTU21D;64295;44.772;39.872;2023-11-18T14:36:42;11.84;61.10
75683;HTU21D;64295;44.772;39.872;2023-11-18T14:39:11;11.77;61.24
75683;HTU21D;64295;44.772;39.872;2023-11-18T14:41:40;11.69;61.28
75683;HTU21D;64295;44.772;39.872;2023-11-18T14:44:06;11.63;61.39
75683;HTU21D;64295;44.772;39.872;2023-11-18T14:46:38;11.56;61.44
75683;HTU21D;64295;44.772;39.872;2023-11-18T14:49:07;11.53;61.50
75683;HTU21D;64295;44.772;39.872;2023-11-18T14:51:33;11.44;61.59
75683;HTU21D;64295;44.772;39.872;2023-11-18T14:53:59;11.39;61.67
75683;HTU21D;64295;44.772;39.872;2023-11-18T14:56:25;11.42;61.65
75683;HTU21D;64295;44.772;39.872;2023-11-18T14:58:51;11.39;61.61
75683;HTU21D;64295;44.772;39.872;2023-11-18T15:01:17;11.33;61.70
75683;HTU21D;64295;44.772;39.872;2023-11-18T15:03:46;11.29;61.75
75683;HTU21D;64295;44.772;39.872;2023-11-18T15:06:12;11.23;61.83
75683;HTU21D;64295;44.772;39.872;2023-11-18T15:08:41;11.15;61.92
75683;HTU21D;64295;44.772;39.872;2023-11-18T15:11:07;11.12;62.00
75683;HTU21D;64295;44.772;39.872;2023-11-18T15:13:33;11.07;62.06
75683;HTU21D;64295;44.772;39.872;2023-11-18T15:16:02;11.09;62.05
75683;HTU21D;64295;44.772;39.872;2023-11-18T15:18:29;11.15;61.89
75683;HTU21D;64295;44.772;39.872;2023-11-18T15:20:55;11.29;61.84
75683;HTU21D;64295;44.772;39.872;2023-11-18T15:23:26;11.40;61.57
75683;HTU21D;64295;44.772;39.872;2023-11-18T15:25:54;11.37;61.52
75683;HTU21D;64295;44.772;39.872;2023-11-18T15:28:22;11.24;61.85
75683;HTU21D;64295;44.772;39.872;2023-11-18T15:30:48;11.13;62.09
75683;HTU21D;64295;44.772;39.872;2023-11-18T15:33:14;11.01;62.25
75683;HTU21D;64295;44.772;39.872;2023-11-18T15:35:43;11.00;62.30
75683;HTU21D;64295;44.772;39.872;2023-11-18T15:38:13;10.94;62.38
75683;HTU21D;64295;44.772;39.872;2023-11-18T15:40:42;10.88;62.47
75683;HTU21D;64295;44.772;39.872;2023-11-18T15:43:08;10.84;62.51
75683;HTU21D;64295;44.772;39.872;2023-11-18T15:45:37;10.77;62.59
75683;HTU21D;64295;44.772;39.872;2023-11-18T15:48:04;10.77;62.62
75683;HTU21D;64295;44.772;39.872;2023-11-18T15:50:31;10.78;62.54